createdAt,value
2022-12-14T00:05:01.252Z,8.98
2022-12-14T00:10:02.947Z,8.60
2022-12-14T00:15:05.260Z,8.15
2022-12-14T00:20:07.038Z,8.13
2022-12-14T00:25:09.795Z,7.00
2022-12-14T00:30:12.991Z,7.22
2022-12-14T00:35:17.359Z,7.05
2022-12-14T00:40:18.862Z,7.28
2022-12-14T00:45:20.359Z,7.53
2022-12-14T00:50:21.745Z,7.80
2022-12-14T00:55:23.152Z,7.47
2022-12-14T01:00:24.652Z,7.43
2022-12-14T01:05:26.184Z,7.18
2022-12-14T01:10:30.288Z,6.85
2022-12-14T01:15:31.690Z,6.35
2022-12-14T01:20:33.116Z,7.05
2022-12-14T01:25:34.684Z,7.03
2022-12-14T01:30:39.325Z,6.32
2022-12-14T01:35:40.633Z,6.30
2022-12-14T01:40:41.966Z,6.40
2022-12-14T01:45:43.559Z,5.95
2022-12-14T01:50:47.323Z,6.20
2022-12-14T01:55:54.908Z,5.95
2022-12-14T02:00:59.505Z,5.85
2022-12-14T02:06:09.236Z,5.90
2022-12-14T02:11:10.877Z,6.47
2022-12-14T02:16:12.326Z,6.18
2022-12-14T02:21:22.948Z,5.90
2022-12-14T02:26:54.907Z,6.88
2022-12-14T02:32:32.199Z,6.70
2022-12-14T02:37:48.998Z,5.72
2022-12-14T02:43:11.049Z,6.25
2022-12-14T02:48:24.151Z,6.40
2022-12-14T02:53:38.781Z,6.05
2022-12-14T02:58:43.834Z,6.30
2022-12-14T03:03:45.665Z,6.00
2022-12-14T03:08:47.392Z,5.35
2022-12-14T03:13:58.632Z,5.72
2022-12-14T03:19:08.009Z,7.75
2022-12-14T03:24:12.723Z,8.43
2022-12-14T03:29:29.243Z,7.85
2022-12-14T03:34:43.604Z,6.70
2022-12-14T03:39:46.783Z,6.18
2022-12-14T03:44:55.896Z,7.25
2022-12-14T03:50:02.481Z,6.75
2022-12-14T03:55:20.410Z,6.68
2022-12-14T04:00:24.413Z,6.32
2022-12-14T04:05:34.361Z,7.00
2022-12-14T04:11:00.527Z,7.53
2022-12-14T04:16:42.058Z,7.40
2022-12-14T04:21:58.624Z,7.32
2022-12-14T04:27:11.650Z,6.47
2022-12-14T04:32:22.083Z,6.80
2022-12-14T04:37:27.614Z,6.18
2022-12-14T04:42:34.113Z,7.60
2022-12-14T04:47:43.742Z,6.50
2022-12-14T04:52:50.812Z,7.38
2022-12-14T04:57:59.021Z,7.63
2022-12-14T05:03:08.994Z,7.60
2022-12-14T05:08:17.773Z,7.20
2022-12-14T05:13:40.760Z,7.85
2022-12-14T05:18:44.132Z,6.93
2022-12-14T05:23:45.623Z,6.88
2022-12-14T05:28:50.407Z,7.28
2022-12-14T05:33:51.996Z,7.43
2022-12-14T05:38:53.374Z,6.65
2022-12-14T05:43:54.743Z,6.95
2022-12-14T05:48:56.156Z,6.80
2022-12-14T05:53:58.971Z,7.53
2022-12-14T05:59:00.504Z,6.88
2022-12-14T06:04:02.001Z,7.53
2022-12-14T06:09:07.141Z,7.55
2022-12-14T06:14:09.076Z,8.13
2022-12-14T06:19:11.209Z,7.57
2022-12-14T06:24:13.670Z,7.60
2022-12-14T06:29:18.835Z,7.55
2022-12-14T06:34:24.800Z,8.30
2022-12-14T06:39:29.647Z,7.70
2022-12-14T06:44:31.216Z,7.60
2022-12-14T06:49:32.790Z,8.35
2022-12-14T06:54:34.152Z,8.82
2022-12-14T06:59:35.579Z,7.75
2022-12-14T07:04:36.925Z,9.57
2022-12-14T07:09:38.444Z,8.52
2022-12-14T07:14:39.962Z,8.77
2022-12-14T07:19:43.580Z,8.13
2022-12-14T07:24:45.050Z,8.70
2022-12-14T07:29:48.623Z,8.18
2022-12-14T07:34:50.051Z,7.80
2022-12-14T07:39:51.411Z,7.90
2022-12-14T07:44:53.015Z,8.23
2022-12-14T07:49:54.468Z,8.13
2022-12-14T07:54:55.839Z,7.93
2022-12-14T07:59:57.787Z,10.07
2022-12-14T08:04:59.162Z,12.32
2022-12-14T08:10:00.632Z,9.52
2022-12-14T08:15:02.008Z,8.75
2022-12-14T08:20:04.153Z,9.70
2022-12-14T08:25:05.932Z,8.77
2022-12-14T08:30:08.220Z,8.85
2022-12-14T08:35:09.726Z,8.27
2022-12-14T08:40:11.445Z,9.88
2022-12-14T08:45:12.956Z,8.80
2022-12-14T08:50:14.491Z,9.18
2022-12-14T08:55:21.160Z,9.80
2022-12-14T09:00:26.945Z,9.95
2022-12-14T09:05:28.336Z,10.32
2022-12-14T09:10:29.766Z,10.48
2022-12-14T09:15:31.126Z,9.60
2022-12-14T09:20:32.591Z,8.30
2022-12-14T09:25:33.939Z,9.30
2022-12-14T09:30:35.446Z,9.45
2022-12-14T09:35:36.881Z,10.02
2022-12-14T09:40:42.756Z,10.10
2022-12-14T09:45:54.644Z,8.75
2022-12-14T09:50:56.245Z,9.05
2022-12-14T09:55:58.776Z,9.40
2022-12-14T10:01:19.091Z,10.45
2022-12-14T10:06:29.039Z,10.93
2022-12-14T10:11:44.868Z,9.07
2022-12-14T10:17:14.318Z,9.80
2022-12-14T10:22:20.198Z,9.15
2022-12-14T10:27:24.318Z,9.10
2022-12-14T10:32:34.809Z,9.35
2022-12-14T10:37:39.726Z,9.50
2022-12-14T10:42:52.292Z,9.05
2022-12-14T10:48:11.372Z,8.63
2022-12-14T10:53:17.453Z,8.93
2022-12-14T10:58:18.892Z,10.55
2022-12-14T11:03:20.607Z,9.40
2022-12-14T11:08:48.180Z,10.38
2022-12-14T11:14:10.091Z,10.63
2022-12-14T11:19:23.239Z,11.07
2022-12-14T11:24:27.498Z,9.68
2022-12-14T11:29:33.288Z,11.32
2022-12-14T11:34:41.450Z,10.73
2022-12-14T11:39:43.108Z,10.27
2022-12-14T11:44:46.350Z,10.25
2022-12-14T11:49:54.354Z,10.52
2022-12-14T11:54:55.716Z,9.80
2022-12-14T12:00:21.602Z,10.27
2022-12-14T12:05:24.042Z,10.48
2022-12-14T12:10:40.275Z,10.57
2022-12-14T12:15:50.017Z,10.60
2022-12-14T12:21:15.945Z,10.20
2022-12-14T12:26:30.642Z,10.77
2022-12-14T12:31:42.025Z,12.43
2022-12-14T12:37:03.054Z,11.32
2022-12-14T12:42:45.008Z,10.93
2022-12-14T12:47:53.268Z,10.82
2022-12-14T12:53:04.305Z,11.27
2022-12-14T12:58:09.952Z,11.23
2022-12-14T13:03:37.584Z,11.95
2022-12-14T13:08:41.645Z,11.40
2022-12-14T13:13:48.589Z,10.25
2022-12-14T13:19:40.547Z,9.82
2022-12-14T13:24:20.448Z,10.10
2022-12-14T13:29:30.935Z,9.85
2022-12-14T13:34:44.091Z,10.43
2022-12-14T13:40:23.227Z,10.60
2022-12-14T13:45:31.242Z,10.60
2022-12-14T13:50:39.678Z,10.02
2022-12-14T13:55:51.881Z,9.85
2022-12-14T14:00:59.372Z,9.35
2022-12-14T14:06:23.072Z,9.68
2022-12-14T14:11:42.466Z,9.35
2022-12-14T14:16:50.497Z,11.02
2022-12-14T14:22:26.461Z,9.93
2022-12-14T14:27:50.423Z,10.30
2022-12-14T14:32:54.310Z,9.52
2022-12-14T14:38:01.726Z,11.20
2022-12-14T14:43:17.204Z,10.88
2022-12-14T14:48:34.624Z,9.68
2022-12-14T14:53:38.650Z,10.13
2022-12-14T14:58:42.137Z,11.73
2022-12-14T15:03:52.769Z,13.55
2022-12-14T15:09:09.709Z,12.20
2022-12-14T15:14:35.376Z,11.02
2022-12-14T15:19:38.696Z,11.45
2022-12-14T15:24:43.167Z,12.07
2022-12-14T15:29:49.438Z,11.70
2022-12-14T15:34:56.956Z,11.27
2022-12-14T15:40:07.078Z,11.05
2022-12-14T15:45:15.029Z,10.98
2022-12-14T15:50:30.253Z,10.90
2022-12-14T15:55:41.008Z,11.32
2022-12-14T16:00:49.277Z,10.50
2022-12-14T16:05:51.111Z,11.70
2022-12-14T16:10:55.557Z,9.75
2022-12-14T16:15:58.495Z,12.47
2022-12-14T16:21:03.289Z,11.77
2022-12-14T16:26:37.498Z,13.80
2022-12-14T16:31:39.155Z,12.77
2022-12-14T16:36:41.008Z,13.65
2022-12-14T16:42:00.761Z,17.98
2022-12-14T16:47:05.109Z,15.60
2022-12-14T16:52:09.488Z,18.25
2022-12-14T16:57:23.939Z,16.20
2022-12-14T17:02:30.655Z,15.15
2022-12-14T17:07:33.464Z,17.30
2022-12-14T17:12:34.848Z,13.80
2022-12-14T17:17:36.535Z,14.82
2022-12-14T17:22:38.090Z,15.88
2022-12-14T17:27:40.810Z,13.52
2022-12-14T17:32:42.784Z,15.15
2022-12-14T17:37:44.256Z,18.25
2022-12-14T17:42:51.861Z,14.57
2022-12-14T17:47:54.449Z,13.10
2022-12-14T17:52:55.813Z,12.88
2022-12-14T17:57:58.194Z,12.65
2022-12-14T18:03:00.069Z,13.02
2022-12-14T18:08:01.664Z,11.43
2022-12-14T18:13:04.028Z,12.25
2022-12-14T18:18:06.055Z,11.38
2022-12-14T18:23:13.892Z,12.38
2022-12-14T18:28:15.729Z,11.43
2022-12-14T18:33:20.240Z,13.48
2022-12-14T18:38:22.016Z,13.27
2022-12-14T18:43:26.196Z,13.90
2022-12-14T18:48:27.803Z,15.57
2022-12-14T18:53:29.710Z,15.23
2022-12-14T18:58:31.399Z,13.95
2022-12-14T19:03:33.410Z,14.85
2022-12-14T19:08:35.134Z,15.52
2022-12-14T19:13:36.736Z,15.18
2022-12-14T19:18:38.423Z,15.48
2022-12-14T19:23:39.812Z,13.60
2022-12-14T19:28:41.192Z,15.10
2022-12-14T19:33:42.581Z,14.60
2022-12-14T19:38:44.800Z,14.55
2022-12-14T19:43:50.526Z,14.82
2022-12-14T19:48:52.232Z,15.45
2022-12-14T19:53:55.031Z,16.08
2022-12-14T19:59:00.773Z,14.93
2022-12-14T20:04:02.406Z,14.88
2022-12-14T20:09:05.773Z,15.48
2022-12-14T20:14:07.168Z,16.40
2022-12-14T20:19:10.806Z,17.67
2022-12-14T20:24:13.210Z,17.88
2022-12-14T20:29:15.248Z,17.42
2022-12-14T20:34:16.860Z,17.63
2022-12-14T20:39:19.806Z,15.82
2022-12-14T20:44:21.767Z,16.45
2022-12-14T20:49:29.370Z,16.33
2022-12-14T20:54:30.809Z,15.52
2022-12-14T20:59:33.285Z,14.13
2022-12-14T21:04:34.955Z,14.57
2022-12-14T21:09:36.411Z,13.93
2022-12-14T21:14:42.318Z,14.50
2022-12-14T21:19:43.867Z,14.80
2022-12-14T21:25:02.896Z,16.35
2022-12-14T21:30:09.063Z,15.52
2022-12-14T21:35:10.495Z,18.38
2022-12-14T21:40:32.190Z,18.10
2022-12-14T21:45:33.632Z,21.75
2022-12-14T21:50:35.255Z,22.75
2022-12-14T21:55:36.659Z,23.38
2022-12-14T22:00:38.173Z,24.77
2022-12-14T22:05:39.600Z,25.70
2022-12-14T22:10:41.116Z,26.92
2022-12-14T22:15:42.594Z,26.60
2022-12-14T22:20:43.935Z,26.17
2022-12-14T22:25:50.110Z,24.77
2022-12-14T22:30:51.428Z,23.77
2022-12-14T22:35:52.955Z,25.35
2022-12-14T22:41:01.479Z,23.55
2022-12-14T22:46:03.609Z,24.90
2022-12-14T22:51:10.046Z,24.52
2022-12-14T22:56:21.433Z,25.05
2022-12-14T23:01:23.482Z,23.05
2022-12-14T23:06:24.987Z,25.05
2022-12-14T23:11:45.109Z,25.27
2022-12-14T23:17:05.168Z,24.15
2022-12-14T23:22:25.098Z,24.25
2022-12-14T23:27:45.557Z,24.83
2022-12-14T23:33:05.940Z,23.58
2022-12-14T23:38:26.723Z,23.48
2022-12-14T23:43:46.536Z,23.10
2022-12-14T23:49:10.544Z,20.83
2022-12-14T23:54:35.338Z,21.25
2022-12-14T23:59:55.256Z,22.52
